createdAt,value
2018-11-23T00:00:29.402Z,6.60
2018-11-23T00:02:57.709Z,6.87
2018-11-23T00:05:25.460Z,7.17
2018-11-23T00:07:53.677Z,7.57
2018-11-23T00:10:22.665Z,7.10
2018-11-23T00:12:50.449Z,7.23
2018-11-23T00:15:19.426Z,7.67
2018-11-23T00:17:47.198Z,7.50
2018-11-23T00:20:16.193Z,7.00
2018-11-23T00:22:43.847Z,6.37
2018-11-23T00:25:14.612Z,6.63
2018-11-23T00:27:42.539Z,7.60
2018-11-23T00:30:20.036Z,6.47
2018-11-23T00:32:48.347Z,7.03
2018-11-23T00:35:17.834Z,6.37
2018-11-23T00:37:45.954Z,5.73
2018-11-23T00:40:18.415Z,6.63
2018-11-23T00:42:46.074Z,7.00
2018-11-23T00:45:13.742Z,6.57
2018-11-23T00:47:42.199Z,7.00
2018-11-23T00:50:11.869Z,6.43
2018-11-23T00:52:40.802Z,6.77
2018-11-23T00:55:09.950Z,7.63
2018-11-23T00:57:38.073Z,7.00
2018-11-23T01:00:11.080Z,6.80
2018-11-23T01:02:38.717Z,5.80
2018-11-23T01:05:06.450Z,7.03
2018-11-23T01:07:34.322Z,6.43
2018-11-23T01:10:02.109Z,6.60
2018-11-23T01:12:29.753Z,6.40
2018-11-23T01:14:57.407Z,6.90
2018-11-23T01:17:25.055Z,7.47
2018-11-23T01:19:52.665Z,7.13
2018-11-23T01:22:20.474Z,6.77
2018-11-23T01:24:48.086Z,6.47
2018-11-23T01:27:15.707Z,6.40
2018-11-23T01:29:43.435Z,6.40
2018-11-23T01:32:11.195Z,6.27
2018-11-23T01:34:38.811Z,6.63
2018-11-23T01:37:06.474Z,6.67
2018-11-23T01:39:34.128Z,7.07
2018-11-23T01:42:01.711Z,6.20
2018-11-23T01:44:29.437Z,6.40
2018-11-23T01:46:57.251Z,6.27
2018-11-23T01:49:24.895Z,7.20
2018-11-23T01:51:52.495Z,6.93
2018-11-23T01:54:20.174Z,5.33
2018-11-23T01:56:47.787Z,6.10
2018-11-23T01:59:15.442Z,6.40
2018-11-23T02:01:43.146Z,6.43
2018-11-23T02:04:10.806Z,6.57
2018-11-23T02:06:38.426Z,6.90
2018-11-23T02:09:07.165Z,6.27
2018-11-23T02:11:34.783Z,6.80
2018-11-23T02:14:02.541Z,6.73
2018-11-23T02:16:30.181Z,6.10
2018-11-23T02:18:57.779Z,6.90
2018-11-23T02:21:25.471Z,6.30
2018-11-23T02:23:53.139Z,6.17
2018-11-23T02:26:20.903Z,5.53
2018-11-23T02:28:48.710Z,6.03
2018-11-23T02:31:16.433Z,6.83
2018-11-23T02:33:44.070Z,7.10
2018-11-23T02:36:11.763Z,6.00
2018-11-23T02:38:39.397Z,6.70
2018-11-23T02:41:07.009Z,6.77
2018-11-23T02:43:34.706Z,5.93
2018-11-23T02:46:02.348Z,5.83
2018-11-23T02:48:30.042Z,6.33
2018-11-23T02:50:57.729Z,6.67
2018-11-23T02:53:25.375Z,6.93
2018-11-23T02:55:53.056Z,6.03
2018-11-23T02:58:20.734Z,6.27
2018-11-23T03:00:48.342Z,5.50
2018-11-23T03:03:15.976Z,6.57
2018-11-23T03:05:43.624Z,6.77
2018-11-23T03:08:11.264Z,6.57
2018-11-23T03:10:38.906Z,5.90
2018-11-23T03:13:06.570Z,5.80
2018-11-23T03:15:34.370Z,7.27
2018-11-23T03:18:02.028Z,6.30
2018-11-23T03:20:29.648Z,6.20
2018-11-23T03:22:57.432Z,6.60
2018-11-23T03:25:25.014Z,5.60
2018-11-23T03:27:52.670Z,6.23
2018-11-23T03:30:21.607Z,5.67
2018-11-23T03:32:49.938Z,6.00
2018-11-23T03:35:18.161Z,6.53
2018-11-23T03:37:45.945Z,5.60
2018-11-23T03:40:13.613Z,5.93
2018-11-23T03:42:41.387Z,6.23
2018-11-23T03:45:10.461Z,5.50
2018-11-23T03:47:38.087Z,6.13
2018-11-23T03:50:06.833Z,5.70
2018-11-23T03:52:34.447Z,5.93
2018-11-23T03:55:02.142Z,6.00
2018-11-23T03:57:29.825Z,6.90
2018-11-23T03:59:57.512Z,5.80
2018-11-23T04:02:25.561Z,5.80
2018-11-23T04:04:53.264Z,6.60
2018-11-23T04:07:20.941Z,6.37
2018-11-23T04:09:48.553Z,6.03
2018-11-23T04:12:16.218Z,6.30
2018-11-23T04:14:43.842Z,6.53
2018-11-23T04:17:11.505Z,7.00
2018-11-23T04:19:39.171Z,6.00
2018-11-23T04:22:06.803Z,5.97
2018-11-23T04:24:34.454Z,6.37
2018-11-23T04:27:02.021Z,5.70
2018-11-23T04:29:29.909Z,6.57
2018-11-23T04:31:57.781Z,5.57
2018-11-23T04:34:26.224Z,5.30
2018-11-23T04:36:53.977Z,6.30
2018-11-23T04:39:21.560Z,5.67
2018-11-23T04:41:49.205Z,6.17
2018-11-23T04:44:16.883Z,6.50
2018-11-23T04:46:44.492Z,6.80
2018-11-23T04:49:12.163Z,4.90
2018-11-23T04:51:39.814Z,5.00
2018-11-23T04:54:07.463Z,5.10
2018-11-23T04:56:35.101Z,6.03
2018-11-23T04:59:02.732Z,5.90
2018-11-23T05:01:30.364Z,5.80
2018-11-23T05:03:58.019Z,5.33
2018-11-23T05:06:25.678Z,5.30
2018-11-23T05:08:53.536Z,5.60
2018-11-23T05:11:21.817Z,5.50
2018-11-23T05:13:49.442Z,5.03
2018-11-23T05:16:17.083Z,5.50
2018-11-23T05:18:44.728Z,5.60
2018-11-23T05:21:12.334Z,6.40
2018-11-23T05:23:39.996Z,5.90
2018-11-23T05:26:07.650Z,5.67
2018-11-23T05:28:35.277Z,5.90
2018-11-23T05:31:02.898Z,5.90
2018-11-23T05:33:30.583Z,6.13
2018-11-23T05:35:58.251Z,5.20
2018-11-23T05:38:25.938Z,5.03
2018-11-23T05:40:53.712Z,5.47
2018-11-23T05:43:21.484Z,6.27
2018-11-23T05:45:49.082Z,5.13
2018-11-23T05:48:16.742Z,6.30
2018-11-23T05:50:44.354Z,5.63
2018-11-23T05:53:12.043Z,5.40
2018-11-23T05:55:39.702Z,6.87
2018-11-23T05:58:07.397Z,6.63
2018-11-23T06:00:35.121Z,7.50
2018-11-23T06:03:02.796Z,6.17
2018-11-23T06:05:30.444Z,7.13
2018-11-23T06:07:58.056Z,5.60
2018-11-23T06:10:25.707Z,6.20
2018-11-23T06:12:53.346Z,6.70
2018-11-23T06:15:22.375Z,6.60
2018-11-23T06:17:50.464Z,7.17
2018-11-23T06:20:21.953Z,8.70
2018-11-23T06:22:50.474Z,7.90
2018-11-23T06:25:28.633Z,7.87
2018-11-23T06:27:56.269Z,9.17
2018-11-23T06:30:23.882Z,9.77
2018-11-23T06:33:02.787Z,9.33
2018-11-23T06:35:30.422Z,9.60
2018-11-23T06:37:58.204Z,9.60
2018-11-23T06:40:25.848Z,10.40
2018-11-23T06:42:53.541Z,9.87
2018-11-23T06:45:21.389Z,8.93
2018-11-23T06:47:49.056Z,7.77
2018-11-23T06:50:16.753Z,9.50
2018-11-23T06:52:44.430Z,8.30
2018-11-23T06:55:12.416Z,8.80
2018-11-23T06:57:40.462Z,8.30
2018-11-23T07:00:11.415Z,7.57
2018-11-23T07:02:39.290Z,8.70
2018-11-23T07:05:07.794Z,9.53
2018-11-23T07:07:36.625Z,9.07
2018-11-23T07:10:04.741Z,8.20
2018-11-23T07:12:32.416Z,8.77
2018-11-23T07:15:00.215Z,9.00
2018-11-23T07:17:27.853Z,8.80
2018-11-23T07:19:56.311Z,8.93
2018-11-23T07:22:24.080Z,8.90
2018-11-23T07:24:54.779Z,8.27
2018-11-23T07:27:22.393Z,8.20
2018-11-23T07:29:50.082Z,8.17
2018-11-23T07:32:17.675Z,9.40
2018-11-23T07:34:45.332Z,9.63
2018-11-23T07:37:12.986Z,9.33
2018-11-23T07:39:51.820Z,10.10
2018-11-23T07:42:23.178Z,10.30
2018-11-23T07:44:50.801Z,9.53
2018-11-23T07:47:18.527Z,10.07
2018-11-23T07:49:46.661Z,8.27
2018-11-23T07:52:14.580Z,10.10
2018-11-23T07:54:42.412Z,10.60
2018-11-23T07:57:10.397Z,9.50
2018-11-23T07:59:38.248Z,9.27
2018-11-23T08:02:07.456Z,10.03
2018-11-23T08:04:35.215Z,10.03
2018-11-23T08:07:02.928Z,9.63
2018-11-23T08:09:30.611Z,8.90
2018-11-23T08:11:58.398Z,8.50
2018-11-23T08:14:26.021Z,8.83
2018-11-23T08:16:53.687Z,8.80
2018-11-23T08:19:21.360Z,8.63
2018-11-23T08:21:49.035Z,8.60
2018-11-23T08:24:16.723Z,9.00
2018-11-23T08:26:44.399Z,9.13
2018-11-23T08:29:12.207Z,9.03
2018-11-23T08:31:40.026Z,9.03
2018-11-23T08:34:07.816Z,9.07
2018-11-23T08:36:35.657Z,8.47
2018-11-23T08:39:04.946Z,9.07
2018-11-23T08:41:32.707Z,8.60
2018-11-23T08:44:00.369Z,7.10
2018-11-23T08:46:28.097Z,7.63
2018-11-23T08:48:55.797Z,8.30
2018-11-23T08:51:23.426Z,7.80
2018-11-23T08:53:51.078Z,7.73
2018-11-23T08:56:18.724Z,8.47
2018-11-23T08:58:46.337Z,7.73
2018-11-23T09:01:14.018Z,7.70
2018-11-23T09:03:41.687Z,8.50
2018-11-23T09:06:09.468Z,8.23
2018-11-23T09:08:37.131Z,8.73
2018-11-23T09:11:05.615Z,9.70
2018-11-23T09:13:33.300Z,9.10
2018-11-23T09:16:01.028Z,8.70
2018-11-23T09:18:28.735Z,8.23
2018-11-23T09:20:56.424Z,7.90
2018-11-23T09:23:24.415Z,8.33
2018-11-23T09:25:52.056Z,9.40
2018-11-23T09:28:19.793Z,9.70
2018-11-23T09:30:47.455Z,8.20
2018-11-23T09:33:15.111Z,7.90
2018-11-23T09:35:42.895Z,8.57
2018-11-23T09:38:10.599Z,7.30
2018-11-23T09:40:38.326Z,9.40
2018-11-23T09:43:06.035Z,8.33
2018-11-23T09:45:34.482Z,8.93
2018-11-23T09:48:03.350Z,7.53
2018-11-23T09:50:31.023Z,8.63
2018-11-23T09:53:00.295Z,7.40
2018-11-23T09:55:29.193Z,7.87
2018-11-23T09:57:56.929Z,8.27
2018-11-23T10:00:26.202Z,8.43
2018-11-23T10:02:54.789Z,7.90
2018-11-23T10:05:23.164Z,9.10
2018-11-23T10:07:53.452Z,8.53
2018-11-23T10:10:21.839Z,7.73
2018-11-23T10:12:49.588Z,8.07
2018-11-23T10:15:18.001Z,8.57
2018-11-23T10:17:45.697Z,7.60
2018-11-23T10:20:15.800Z,7.73
2018-11-23T10:22:43.706Z,7.97
2018-11-23T10:25:12.821Z,8.27
2018-11-23T10:27:41.127Z,8.63
2018-11-23T10:30:11.190Z,9.00
2018-11-23T10:32:38.839Z,8.33
2018-11-23T10:35:07.193Z,8.50
2018-11-23T10:37:34.912Z,7.67
2018-11-23T10:40:02.592Z,7.20
2018-11-23T10:42:30.307Z,8.90
2018-11-23T10:44:57.980Z,8.37
2018-11-23T10:47:25.677Z,8.60
2018-11-23T10:49:54.667Z,7.90
2018-11-23T10:52:22.324Z,7.87
2018-11-23T10:54:50.076Z,8.83
2018-11-23T10:57:17.759Z,7.23
2018-11-23T10:59:45.616Z,7.87
2018-11-23T11:02:18.833Z,7.90
2018-11-23T11:04:58.074Z,8.23
2018-11-23T11:07:25.751Z,8.30
2018-11-23T11:09:53.407Z,8.67
2018-11-23T11:12:21.118Z,8.60
2018-11-23T11:14:48.761Z,9.70
2018-11-23T11:17:16.446Z,8.00
2018-11-23T11:19:44.111Z,9.40
2018-11-23T11:22:11.791Z,8.20
2018-11-23T11:24:39.497Z,7.27
2018-11-23T11:27:07.193Z,8.23
2018-11-23T11:29:35.017Z,7.40
2018-11-23T11:32:02.659Z,8.90
2018-11-23T11:34:30.318Z,9.13
2018-11-23T11:36:57.989Z,8.57
2018-11-23T11:39:25.694Z,8.20
2018-11-23T11:41:53.358Z,7.70
2018-11-23T11:44:21.197Z,8.87
2018-11-23T11:46:48.863Z,8.87
2018-11-23T11:49:16.541Z,9.17
2018-11-23T11:51:44.151Z,9.00
2018-11-23T11:54:11.817Z,8.90
2018-11-23T11:56:39.541Z,9.37
2018-11-23T11:59:07.186Z,8.50
2018-11-23T12:01:34.890Z,9.13
2018-11-23T12:04:02.555Z,8.03
2018-11-23T12:06:30.274Z,9.33
2018-11-23T12:08:57.948Z,9.23
2018-11-23T12:11:25.563Z,8.97
2018-11-23T12:13:53.271Z,9.63
2018-11-23T12:16:20.916Z,9.47
2018-11-23T12:18:48.576Z,8.47
2018-11-23T12:21:16.248Z,8.80
2018-11-23T12:23:44.117Z,9.33
2018-11-23T12:26:11.824Z,8.20
2018-11-23T12:28:39.466Z,8.43
2018-11-23T12:31:07.133Z,8.03
2018-11-23T12:33:34.765Z,10.37
2018-11-23T12:36:02.415Z,9.27
2018-11-23T12:38:30.091Z,8.20
2018-11-23T12:40:57.797Z,8.83
2018-11-23T12:43:25.455Z,9.57
2018-11-23T12:45:53.049Z,9.93
2018-11-23T12:48:20.785Z,8.93
2018-11-23T12:50:48.436Z,9.17
2018-11-23T12:53:16.098Z,9.10
2018-11-23T12:55:43.788Z,9.80
2018-11-23T12:58:11.442Z,9.27
2018-11-23T13:00:39.105Z,9.60
2018-11-23T13:03:06.839Z,10.10
2018-11-23T13:05:35.181Z,10.40
2018-11-23T13:08:04.522Z,9.17
2018-11-23T13:10:32.224Z,10.30
2018-11-23T13:13:00.959Z,10.27
2018-11-23T13:15:28.622Z,9.60
2018-11-23T13:17:56.956Z,8.83
2018-11-23T13:20:24.605Z,9.60
2018-11-23T13:22:52.720Z,9.57
2018-11-23T13:25:22.056Z,10.10
2018-11-23T13:27:49.722Z,11.23
2018-11-23T13:30:26.346Z,11.10
2018-11-23T13:32:53.974Z,11.93
2018-11-23T13:35:21.656Z,11.90
2018-11-23T13:37:49.435Z,13.10
2018-11-23T13:40:19.337Z,12.60
2018-11-23T13:42:47.794Z,13.30
2018-11-23T13:45:16.897Z,14.73
2018-11-23T13:47:44.628Z,16.83
2018-11-23T13:50:13.809Z,15.87
2018-11-23T13:52:42.998Z,14.93
2018-11-23T13:55:10.796Z,14.70
2018-11-23T13:57:38.479Z,16.57
2018-11-23T14:00:14.289Z,16.00
2018-11-23T14:02:42.336Z,15.63
2018-11-23T14:05:12.151Z,16.40
2018-11-23T14:07:40.011Z,14.90
2018-11-23T14:10:11.063Z,14.63
2018-11-23T14:12:38.723Z,14.43
2018-11-23T14:15:10.944Z,15.73
2018-11-23T14:17:38.800Z,14.50
2018-11-23T14:20:09.348Z,15.43
2018-11-23T14:22:37.274Z,13.87
2018-11-23T14:25:05.326Z,13.73
2018-11-23T14:27:33.076Z,13.37
2018-11-23T14:30:00.737Z,13.80
2018-11-23T14:32:28.465Z,14.50
2018-11-23T14:34:56.124Z,14.60
2018-11-23T14:37:23.853Z,14.50
2018-11-23T14:39:51.556Z,12.97
2018-11-23T14:42:19.329Z,12.60
2018-11-23T14:44:46.993Z,12.30
2018-11-23T14:47:14.717Z,13.37
2018-11-23T14:49:42.398Z,12.90
2018-11-23T14:52:10.107Z,13.27
2018-11-23T14:54:42.663Z,11.40
2018-11-23T14:57:05.516Z,13.17
2018-11-23T14:59:33.269Z,12.27
2018-11-23T15:02:00.936Z,13.20
2018-11-23T15:04:28.646Z,11.47
2018-11-23T15:06:56.348Z,11.60
2018-11-23T15:09:24.014Z,12.40
2018-11-23T15:11:51.761Z,12.33
2018-11-23T15:14:19.408Z,12.77
2018-11-23T15:16:47.074Z,12.50
2018-11-23T15:19:14.728Z,12.23
2018-11-23T15:21:42.396Z,13.90
2018-11-23T15:24:10.128Z,12.13
2018-11-23T15:26:37.791Z,12.00
2018-11-23T15:29:05.751Z,11.70
2018-11-23T15:31:33.424Z,11.87
2018-11-23T15:36:35.391Z,12.03
2018-11-23T15:39:03.895Z,11.03
2018-11-23T15:41:31.539Z,12.17
2018-11-23T15:43:59.240Z,11.30
2018-11-23T15:46:26.944Z,11.30
2018-11-23T15:48:54.650Z,11.03
2018-11-23T15:51:22.317Z,9.67
2018-11-23T15:53:50.053Z,11.97
2018-11-23T15:56:17.728Z,11.20
2018-11-23T15:58:45.398Z,10.93
2018-11-23T16:01:13.061Z,11.40
2018-11-23T16:03:40.714Z,11.37
2018-11-23T16:06:08.442Z,11.50
2018-11-23T16:08:36.115Z,10.83
2018-11-23T16:11:03.778Z,9.97
2018-11-23T16:13:31.484Z,10.63
2018-11-23T16:15:59.179Z,10.73
2018-11-23T16:18:26.849Z,10.40
2018-11-23T16:20:54.555Z,9.93
2018-11-23T16:23:22.209Z,10.63
2018-11-23T16:25:50.988Z,10.43
2018-11-23T16:28:18.714Z,11.63
2018-11-23T16:30:47.801Z,10.50
2018-11-23T16:33:17.212Z,10.83
2018-11-23T16:35:44.969Z,10.30
2018-11-23T16:38:16.041Z,9.80
2018-11-23T16:40:45.852Z,9.37
2018-11-23T16:43:14.475Z,9.97
2018-11-23T16:45:43.572Z,10.03
2018-11-23T16:48:12.161Z,10.03
2018-11-23T16:50:39.876Z,9.87
2018-11-23T16:53:07.645Z,9.47
2018-11-23T16:55:35.309Z,10.13
2018-11-23T16:58:05.220Z,9.63
2018-11-23T17:00:34.183Z,10.03
2018-11-23T17:03:04.104Z,9.97
2018-11-23T17:05:33.369Z,10.27
2018-11-23T17:08:01.159Z,9.20
2018-11-23T17:10:28.845Z,9.77
2018-11-23T17:12:56.533Z,10.70
2018-11-23T17:15:25.606Z,10.87
2018-11-23T17:17:53.307Z,9.53
2018-11-23T17:20:22.371Z,9.23
2018-11-23T17:22:50.922Z,9.37
2018-11-23T17:25:19.772Z,10.20
2018-11-23T17:27:47.725Z,8.37
2018-11-23T17:30:18.979Z,8.97
2018-11-23T17:32:46.725Z,9.70
2018-11-23T17:35:14.405Z,9.37
2018-11-23T17:37:42.408Z,9.73
2018-11-23T17:40:12.586Z,9.53
2018-11-23T17:42:40.276Z,9.00
2018-11-23T17:45:13.705Z,9.17
2018-11-23T17:47:41.394Z,8.17
2018-11-23T17:50:14.121Z,9.00
2018-11-23T17:52:42.039Z,8.80
2018-11-23T17:55:11.259Z,8.30
2018-11-23T17:57:40.254Z,8.87
2018-11-23T18:00:13.642Z,8.77
2018-11-23T18:02:41.665Z,8.83
2018-11-23T18:05:10.654Z,9.47
2018-11-23T18:07:38.436Z,8.10
2018-11-23T18:10:08.798Z,8.20
2018-11-23T18:12:36.443Z,9.23
2018-11-23T18:15:04.883Z,8.67
2018-11-23T18:17:32.533Z,9.20
2018-11-23T18:20:00.153Z,9.33
2018-11-23T18:22:27.813Z,8.70
2018-11-23T18:24:55.453Z,8.80
2018-11-23T18:27:23.082Z,8.00
2018-11-23T18:29:50.712Z,7.63
2018-11-23T18:32:18.367Z,8.03
2018-11-23T18:34:45.977Z,8.87
2018-11-23T18:37:13.648Z,8.17
2018-11-23T18:39:41.460Z,8.27
2018-11-23T18:42:09.112Z,7.90
2018-11-23T18:44:36.753Z,8.20
2018-11-23T18:47:04.519Z,9.20
2018-11-23T18:49:32.183Z,7.93
2018-11-23T18:51:59.810Z,9.30
2018-11-23T18:54:27.470Z,8.23
2018-11-23T18:56:55.095Z,8.57
2018-11-23T18:59:22.724Z,8.90
2018-11-23T19:01:50.358Z,7.80
2018-11-23T19:04:17.995Z,7.80
2018-11-23T19:06:45.630Z,8.40
2018-11-23T19:09:13.290Z,8.00
2018-11-23T19:11:40.984Z,7.60
2018-11-23T19:14:08.668Z,7.40
2018-11-23T19:16:36.318Z,8.60
2018-11-23T19:19:04.100Z,8.20
2018-11-23T19:21:31.763Z,8.50
2018-11-23T19:23:59.373Z,7.97
2018-11-23T19:26:27.061Z,8.40
2018-11-23T19:28:54.708Z,7.90
2018-11-23T19:31:22.356Z,7.83
2018-11-23T19:33:49.981Z,7.73
2018-11-23T19:36:17.669Z,8.13
2018-11-23T19:38:45.255Z,7.90
2018-11-23T19:41:12.876Z,6.93
2018-11-23T19:43:40.532Z,8.20
2018-11-23T19:46:08.127Z,7.60
2018-11-23T19:48:35.827Z,7.77
2018-11-23T19:51:03.458Z,7.20
2018-11-23T19:53:31.121Z,7.70
2018-11-23T19:55:58.786Z,7.47
2018-11-23T19:58:26.443Z,8.13
2018-11-23T20:00:54.125Z,8.17
2018-11-23T20:03:21.805Z,6.77
2018-11-23T20:05:49.450Z,6.73
2018-11-23T20:08:17.072Z,8.60
2018-11-23T20:10:44.715Z,7.13
2018-11-23T20:13:12.319Z,7.43
2018-11-23T20:15:39.964Z,7.27
2018-11-23T20:18:07.584Z,8.10
2018-11-23T20:20:35.238Z,7.00
2018-11-23T20:23:02.848Z,8.03
2018-11-23T20:25:30.488Z,6.67
2018-11-23T20:27:58.426Z,7.00
2018-11-23T20:30:26.067Z,7.07
2018-11-23T20:32:53.771Z,7.40
2018-11-23T20:35:22.064Z,7.00
2018-11-23T20:37:49.705Z,6.97
2018-11-23T20:40:21.213Z,6.10
2018-11-23T20:42:48.826Z,7.53
2018-11-23T20:45:16.754Z,7.17
2018-11-23T20:47:44.394Z,7.03
2018-11-23T20:50:13.250Z,6.53
2018-11-23T20:52:40.896Z,6.77
2018-11-23T20:55:12.977Z,7.50
2018-11-23T20:57:40.630Z,6.80
2018-11-23T21:00:11.773Z,7.07
2018-11-23T21:02:39.512Z,6.90
2018-11-23T21:05:08.634Z,6.50
2018-11-23T21:07:36.675Z,6.53
2018-11-23T21:10:08.373Z,6.57
2018-11-23T21:12:35.970Z,7.00
2018-11-23T21:15:03.666Z,6.83
2018-11-23T21:17:31.318Z,7.00
2018-11-23T21:19:58.979Z,7.27
2018-11-23T21:22:26.612Z,6.70
2018-11-23T21:24:54.277Z,6.90
2018-11-23T21:27:21.958Z,6.60
2018-11-23T21:29:49.576Z,7.20
2018-11-23T21:32:17.237Z,5.90
2018-11-23T21:34:44.871Z,5.80
2018-11-23T21:37:12.481Z,5.80
2018-11-23T21:39:40.090Z,6.33
2018-11-23T21:42:07.754Z,6.80
2018-11-23T21:44:35.361Z,7.20
2018-11-23T21:47:02.932Z,7.43
2018-11-23T21:49:30.716Z,6.90
2018-11-23T21:51:58.368Z,6.60
2018-11-23T21:54:25.997Z,6.87
2018-11-23T21:56:53.637Z,6.83
2018-11-23T21:59:21.257Z,6.50
2018-11-23T22:01:48.930Z,6.00
2018-11-23T22:04:16.616Z,6.93
2018-11-23T22:06:44.230Z,6.00
2018-11-23T22:09:11.874Z,5.77
2018-11-23T22:11:39.537Z,6.93
2018-11-23T22:14:07.213Z,6.33
2018-11-23T22:16:34.886Z,6.80
2018-11-23T22:19:02.488Z,6.33
2018-11-23T22:21:30.160Z,6.60
2018-11-23T22:24:01.736Z,6.37
2018-11-23T22:26:25.465Z,6.67
2018-11-23T22:28:53.168Z,6.20
2018-11-23T22:31:20.760Z,7.10
2018-11-23T22:33:48.417Z,6.70
2018-11-23T22:36:16.085Z,6.60
2018-11-23T22:38:43.722Z,5.40
2018-11-23T22:41:11.362Z,6.07
2018-11-23T22:43:38.997Z,5.70
2018-11-23T22:46:06.597Z,6.17
2018-11-23T22:48:34.245Z,5.90
2018-11-23T22:51:01.946Z,6.80
2018-11-23T22:53:29.577Z,6.77
2018-11-23T22:55:57.248Z,6.77
2018-11-23T22:58:24.893Z,5.90
2018-11-23T23:00:57.137Z,6.07
2018-11-23T23:03:24.831Z,6.30
2018-11-23T23:05:52.549Z,6.30
2018-11-23T23:08:20.175Z,6.17
2018-11-23T23:10:47.831Z,5.63
2018-11-23T23:13:15.480Z,5.77
2018-11-23T23:15:43.259Z,6.10
2018-11-23T23:18:10.834Z,5.43
2018-11-23T23:20:38.480Z,5.17
2018-11-23T23:23:06.134Z,6.23
2018-11-23T23:25:33.779Z,5.37
2018-11-23T23:28:01.429Z,5.60
2018-11-23T23:30:29.079Z,5.13
2018-11-23T23:32:56.773Z,6.30
2018-11-23T23:35:24.396Z,5.40
2018-11-23T23:37:52.048Z,5.60
2018-11-23T23:40:19.840Z,5.93
2018-11-23T23:42:47.987Z,5.07
2018-11-23T23:45:16.569Z,6.13
2018-11-23T23:47:44.227Z,6.03
2018-11-23T23:50:21.069Z,5.70
2018-11-23T23:52:49.218Z,5.10
2018-11-23T23:55:16.866Z,5.70
2018-11-23T23:57:45.345Z,5.80
